This is the latest recevied weather packets stored in our database for station/object KM7BEO. If no packets are shown the sender has not sent any weather packets the latest 10 day(s).
| Time | Temp. | Humidity | Pressure | Rain* | Wind** | Luminosity | Snow |
|---|---|---|---|---|---|---|---|
| 1777580709 | 17.22° C | 65% | 1018.6 hPa | 0 mm | - | 642 W/m² | - |
| 1777580405 | 17.22° C | 65% | 1018.7 hPa | 0 mm | - | 548 W/m² | - |
| 1777580101 | 17.22° C | 65% | 1018.7 hPa | 0 mm | - | 555 W/m² | - |
| 1777579798 | 17.22° C | 64% | 1018.9 hPa | 0 mm | - | 643 W/m² | - |
| 1777579496 | 17.78° C | 65% | 1019.1 hPa | 0 mm | - | 627 W/m² | - |
| 1777579191 | 17.78° C | 66% | 1018.9 hPa | 0 mm | - | 667 W/m² | - |
| 1777578886 | 17.78° C | 67% | 1018.9 hPa | 0 mm | - | 598 W/m² | - |
| 1777578582 | 17.78° C | 66% | 1019.2 hPa | 0 mm | - | 597 W/m² | - |
| 1777578277 | 16.67° C | 68% | 1019.1 hPa | 0 mm | - | 733 W/m² | - |
| 1777577973 | 15.56° C | 71% | 1019.1 hPa | 0 mm | - | 724 W/m² | - |
| 1777577668 | 15° C | 73% | 1019.3 hPa | 0 mm | - | 503 W/m² | - |
| 1777577366 | 15° C | 74% | 1019.3 hPa | 0 mm | - | 365 W/m² | - |
| 1777577061 | 14.44° C | 76% | 1019.4 hPa | 0 mm | - | 391 W/m² | - |
| 1777576759 | 14.44° C | 77% | 1019.4 hPa | 0 mm | - | 360 W/m² | - |
| 1777576457 | 15° C | 75% | 1019.5 hPa | 0 mm | - | 402 W/m² | - |
| 1777576155 | 15.56° C | 72% | 1019.5 hPa | 0 mm | - | 370 W/m² | - |
| 1777575849 | 15° C | 74% | 1019.5 hPa | 0 mm | - | 359 W/m² | - |
| 1777575547 | 15° C | 75% | 1019.5 hPa | 0 mm | - | 496 W/m² | - |
| 1777575242 | 14.44° C | 77% | 1019.5 hPa | 0 mm | - | 453 W/m² | - |
| 1777574938 | 14.44° C | 75% | 1019.8 hPa | 0 mm | - | 311 W/m² | - |
| 1777574635 | 15° C | 75% | 1019.6 hPa | 0 mm | - | 300 W/m² | - |
| 1777574332 | 15° C | 75% | 1019.8 hPa | 0 mm | - | 418 W/m² | - |
| 1777574032 | 15° C | 76% | 1019.8 hPa | 0 mm | - | 504 W/m² | - |
| 1777573727 | 14.44° C | 78% | 1020 hPa | 0 mm | - | 496 W/m² | - |
| 1777573424 | 13.89° C | 81% | 1019.8 hPa | 0 mm | - | 445 W/m² | - |
* Rain latest hour (hover to see other rain measurements)
** Current wind speed in m/s (hover to see current wind gust speed)